• Join FlightAware (Why Join?)
  • Login
  • US Flag 
10:26PM EDT


 

Airport Tracker/Info


-or-


 

Live Flight TrackerFlight Track Log ✈ ASQ4115 ✈ 04-May-2012 ✈ KIAH - KXNA

Flight Track Log - Related Links

Times and Time Zones

All times are in EDT time to prevent confusion due to time zone crossing. See the ASQ4115 flight status page for this flight to view local times or setup timezone preferences in your user account.

Time Position Orientation Groundspeed Altitude Reporting Facility
EDT Latitude Longitude Course Direction KTS MPH feet Rate Location/Type
02:19PM 29.9581 -95.3481 264° West 164 189 700  Level Houston Center
02:20PM 29.9550 -95.3839 24° Northeast 226 260 3,000 1,680 Climbing Houston Center
02:21PM 30.0078 -95.3569 22° Northeast 253 291 4,100 540 Climbing Houston Center
02:22PM 30.0797 -95.3236 24° Northeast 263 303 4,100  Level Houston Center
02:23PM 30.1497 -95.2878 10° North 268 308 4,100 1,200 Level Houston Center
02:24PM 30.2294 -95.2714 North 273 314 6,500 2,400 Climbing Houston Center
02:25PM 30.3069 -95.2597 North 278 320 8,900 1,980 Climbing Houston Center
02:26PM 30.3908 -95.2458 North 290 334 10,500 1,440 Climbing Houston Center
02:27PM 30.4956 -95.2278 North 317 365 11,800 1,500 Climbing Houston Center
02:28PM 30.5981 -95.2144 North 345 397 13,600 1,740 Climbing Houston Center
02:29PM 30.7028 -95.1989 North 362 417 15,300 1,680 Climbing Houston Center
02:30PM 30.8097 -95.1833 North 373 429 17,000 1,500 Climbing Houston Center
02:31PM 30.9186 -95.1678 North 378 435 18,400 1,740 Climbing Houston Center
02:32PM 31.0256 -95.1497 North 383 441 20,500 1,740 Climbing Houston Center
02:34PM 31.1719 -95.1311 North 386 444 22,700 1,620 Climbing Fort Worth Center
02:35PM 31.2800 -95.1164 North 386 444 24,500 1,740 Climbing Fort Worth Center
02:36PM 31.3906 -95.0989 North 386 444 26,200 1,200 Climbing Fort Worth Center
02:37PM 31.5092 -95.0789 North 386 444 27,000 360 Climbing Fort Worth Center
02:38PM 31.6319 -95.0614 North 407 468 27,000  Level Fort Worth Center
02:39PM 31.7569 -95.0411 North 434 499 27,000  Level Fort Worth Center
02:40PM 31.8900 -95.0206 North 461 531 27,000  Level Fort Worth Center
02:41PM 32.0233 -95.0022 North 469 540 27,000  Level Fort Worth Center
02:42PM 32.1564 -94.9817 10° North 480 552 27,000  Level Fort Worth Center
02:43PM 32.2875 -94.9536 North 473 544 27,000  Level Fort Worth Center
02:44PM 32.4228 -94.9375 North 479 551 27,000  Level Fort Worth Center
02:45PM 32.5539 -94.9117 North 479 551 27,000  Level Fort Worth Center
02:46PM 32.6892 -94.8931 North 484 557 27,000  Level Fort Worth Center
02:47PM 32.8267 -94.8719 North 479 551 27,000  Level Fort Worth Center
02:48PM 32.9617 -94.8508 North 479 551 27,000  Level Fort Worth Center
02:49PM 33.0700 -94.8378 North 479 551 27,000  Level Fort Worth Center
02:50PM 33.2197 -94.8111 North 479 551 27,000  Level Fort Worth Center
02:51PM 33.3592 -94.7897 North 485 558 27,000  Level Fort Worth Center
02:52PM 33.4967 -94.7706 North 491 565 27,000  Level Fort Worth Center
02:53PM 33.6358 -94.7464 North 498 573 27,000  Level Fort Worth Center
02:54PM 33.7711 -94.7272 North 498 573 27,000 -600 Level Fort Worth Center
02:55PM 33.9125 -94.7006 North 498 573 25,800 -1,500 Descending Fort Worth Center
02:56PM 34.0475 -94.6786 North 498 573 24,100 -660 Descending Fort Worth Center
02:58PM 34.2994 -94.6414 North 470 541 24,000 -60 Descending Memphis Center
02:59PM 34.4317 -94.6228 North 470 541 24,000 -60 Level Memphis Center
03:00PM 34.5619 -94.5989 North 470 541 23,900 -600 Descending Memphis Center
03:01PM 34.6919 -94.5778 North 470 541 22,900 -1,080 Descending Memphis Center
03:02PM 34.8178 -94.5536 10° North 465 535 21,800 -1,140 Descending Memphis Center
03:03PM 34.9461 -94.5269 North 465 535 20,700 -1,140 Descending Memphis Center
03:04PM 35.0700 -94.5028 North 459 528 19,600 -1,140 Descending Memphis Center
03:05PM 35.1936 -94.4886 North 453 521 18,500 -1,080 Descending Memphis Center
03:06PM 35.3172 -94.4717 North 447 514 17,500 -1,080 Descending Memphis Center
03:07PM 35.4258 -94.4617 North 442 509 16,400 -1,080 Descending Memphis Center
03:08PM 35.5392 -94.4419 North 429 494 15,400 -1,080 Descending Memphis Center
03:09PM 35.6503 -94.4217 359° North 411 473 14,300 -1,140 Descending Memphis Center
03:10PM 35.7628 -94.4247 357° North 405 466 13,200 -1,140 Descending Memphis Center
03:11PM 35.8753 -94.4328 North 405 466 12,100 -1,140 Descending Memphis Center
03:12PM 35.9817 -94.4303 North 400 460 11,000 -1,020 Descending Memphis Center
03:13PM 36.0819 -94.4225 North 381 438 10,100 -1,380 Descending Memphis Center
03:14PM 36.1697 -94.4167 North 341 392 8,300 -1,980 Descending Memphis Center
03:15PM 36.2492 -94.4103 North 306 352 6,200 -1,980 Descending Memphis Center
03:16PM 36.3264 -94.4064 23° Northeast 284 327 4,400 -1,620 Descending Memphis Center
03:17PM 36.3881 -94.3733 147° Southeast 271 312 3,000 -900 Descending Memphis Center
03:18PM 36.3533 -94.3458 158° South 81 93 2,600 -600 Descending Memphis Center
03:19PM 36.3186 -94.3286 130° Southeast 79 91 1,900 -480 Descending Memphis Center
03:20PM 36.3025 -94.3047 130° Southeast 87 100 1,700 -240 Descending Memphis Center